sensor_id;sensor_type;location;lat;lon;timestamp;temperature;humidity
7676;DHT22;3880;51.464;-2.566;2022-08-19T00:00:37;19.80;99.90
7676;DHT22;3880;51.464;-2.566;2022-08-19T00:03:05;19.70;99.90
7676;DHT22;3880;51.464;-2.566;2022-08-19T00:05:33;19.70;99.90
7676;DHT22;3880;51.464;-2.566;2022-08-19T00:08:01;19.70;99.90
7676;DHT22;3880;51.464;-2.566;2022-08-19T00:10:31;19.70;99.90
7676;DHT22;3880;51.464;-2.566;2022-08-19T00:13:01;19.60;99.90
7676;DHT22;3880;51.464;-2.566;2022-08-19T00:15:28;19.40;99.90
7676;DHT22;3880;51.464;-2.566;2022-08-19T00:17:55;19.40;99.90
7676;DHT22;3880;51.464;-2.566;2022-08-19T00:20:22;19.30;99.90
7676;DHT22;3880;51.464;-2.566;2022-08-19T00:22:49;19.20;99.90
7676;DHT22;3880;51.464;-2.566;2022-08-19T00:25:17;19.20;99.90
7676;DHT22;3880;51.464;-2.566;2022-08-19T00:27:44;19.20;99.90
7676;DHT22;3880;51.464;-2.566;2022-08-19T00:30:13;19.20;99.90
7676;DHT22;3880;51.464;-2.566;2022-08-19T00:32:40;19.20;99.90
7676;DHT22;3880;51.464;-2.566;2022-08-19T00:35:08;19.20;99.90
7676;DHT22;3880;51.464;-2.566;2022-08-19T00:37:35;19.20;99.90
7676;DHT22;3880;51.464;-2.566;2022-08-19T00:40:04;19.20;99.90
7676;DHT22;3880;51.464;-2.566;2022-08-19T00:42:31;19.20;99.90
7676;DHT22;3880;51.464;-2.566;2022-08-19T00:44:58;19.20;99.90
7676;DHT22;3880;51.464;-2.566;2022-08-19T00:47:26;19.20;99.90
7676;DHT22;3880;51.464;-2.566;2022-08-19T00:49:56;19.20;99.90
7676;DHT22;3880;51.464;-2.566;2022-08-19T00:52:27;19.20;99.90
7676;DHT22;3880;51.464;-2.566;2022-08-19T00:54:56;19.10;99.90
7676;DHT22;3880;51.464;-2.566;2022-08-19T00:57:28;19.20;99.90
7676;DHT22;3880;51.464;-2.566;2022-08-19T00:59:56;19.20;99.90
7676;DHT22;3880;51.464;-2.566;2022-08-19T01:02:26;19.20;99.90
7676;DHT22;3880;51.464;-2.566;2022-08-19T01:04:54;19.40;99.90
7676;DHT22;3880;51.464;-2.566;2022-08-19T01:07:21;19.30;99.90
7676;DHT22;3880;51.464;-2.566;2022-08-19T01:10:04;19.30;99.90
7676;DHT22;3880;51.464;-2.566;2022-08-19T01:12:40;19.20;99.90
7676;DHT22;3880;51.464;-2.566;2022-08-19T01:15:10;19.00;99.90
7676;DHT22;3880;51.464;-2.566;2022-08-19T01:17:40;18.80;99.90
7676;DHT22;3880;51.464;-2.566;2022-08-19T01:20:11;18.70;99.90
7676;DHT22;3880;51.464;-2.566;2022-08-19T01:22:43;18.60;99.90
7676;DHT22;3880;51.464;-2.566;2022-08-19T01:25:11;18.70;99.90
7676;DHT22;3880;51.464;-2.566;2022-08-19T01:27:39;18.60;99.90
7676;DHT22;3880;51.464;-2.566;2022-08-19T01:30:08;18.60;99.90
7676;DHT22;3880;51.464;-2.566;2022-08-19T01:32:35;18.60;99.90
7676;DHT22;3880;51.464;-2.566;2022-08-19T01:35:04;18.60;99.90
7676;DHT22;3880;51.464;-2.566;2022-08-19T01:37:44;18.50;99.90
7676;DHT22;3880;51.464;-2.566;2022-08-19T01:40:11;18.50;99.90
7676;DHT22;3880;51.464;-2.566;2022-08-19T01:42:38;18.50;99.90
7676;DHT22;3880;51.464;-2.566;2022-08-19T01:45:07;18.60;99.90
7676;DHT22;3880;51.464;-2.566;2022-08-19T01:47:34;18.60;99.90
7676;DHT22;3880;51.464;-2.566;2022-08-19T01:50:03;18.60;99.90
7676;DHT22;3880;51.464;-2.566;2022-08-19T01:52:30;18.60;99.90
7676;DHT22;3880;51.464;-2.566;2022-08-19T01:54:58;18.50;99.90
7676;DHT22;3880;51.464;-2.566;2022-08-19T01:57:25;18.60;99.90
7676;DHT22;3880;51.464;-2.566;2022-08-19T01:59:53;18.50;99.90
7676;DHT22;3880;51.464;-2.566;2022-08-19T02:02:19;18.50;99.90
7676;DHT22;3880;51.464;-2.566;2022-08-19T02:04:46;18.50;99.90
7676;DHT22;3880;51.464;-2.566;2022-08-19T02:07:13;18.50;99.90
7676;DHT22;3880;51.464;-2.566;2022-08-19T02:09:40;18.40;99.90
7676;DHT22;3880;51.464;-2.566;2022-08-19T02:12:09;18.40;99.90
7676;DHT22;3880;51.464;-2.566;2022-08-19T02:14:36;18.40;99.90
7676;DHT22;3880;51.464;-2.566;2022-08-19T02:17:03;18.30;99.90
7676;DHT22;3880;51.464;-2.566;2022-08-19T02:19:30;18.30;99.90
7676;DHT22;3880;51.464;-2.566;2022-08-19T02:21:58;18.40;99.90
7676;DHT22;3880;51.464;-2.566;2022-08-19T02:24:26;18.30;99.90
7676;DHT22;3880;51.464;-2.566;2022-08-19T02:26:53;18.40;99.90
7676;DHT22;3880;51.464;-2.566;2022-08-19T02:29:21;18.50;99.90
7676;DHT22;3880;51.464;-2.566;2022-08-19T02:31:48;18.50;99.90
7676;DHT22;3880;51.464;-2.566;2022-08-19T02:34:16;18.50;99.90
7676;DHT22;3880;51.464;-2.566;2022-08-19T02:36:43;18.60;99.90
7676;DHT22;3880;51.464;-2.566;2022-08-19T02:39:10;18.70;99.90
7676;DHT22;3880;51.464;-2.566;2022-08-19T02:41:36;18.60;99.90
7676;DHT22;3880;51.464;-2.566;2022-08-19T02:44:04;18.70;99.90
7676;DHT22;3880;51.464;-2.566;2022-08-19T02:46:32;18.70;99.90
7676;DHT22;3880;51.464;-2.566;2022-08-19T02:49:02;18.50;99.90
7676;DHT22;3880;51.464;-2.566;2022-08-19T02:51:33;18.50;99.90
7676;DHT22;3880;51.464;-2.566;2022-08-19T02:54:01;18.50;99.90
7676;DHT22;3880;51.464;-2.566;2022-08-19T02:56:28;18.50;99.90
7676;DHT22;3880;51.464;-2.566;2022-08-19T02:58:56;18.50;99.90
7676;DHT22;3880;51.464;-2.566;2022-08-19T03:01:25;18.50;99.90
7676;DHT22;3880;51.464;-2.566;2022-08-19T03:03:54;18.50;99.90
7676;DHT22;3880;51.464;-2.566;2022-08-19T03:06:24;18.50;99.90
7676;DHT22;3880;51.464;-2.566;2022-08-19T03:08:52;18.50;99.90
7676;DHT22;3880;51.464;-2.566;2022-08-19T03:11:22;18.60;99.90
7676;DHT22;3880;51.464;-2.566;2022-08-19T03:13:50;18.60;99.90
7676;DHT22;3880;51.464;-2.566;2022-08-19T03:16:19;18.60;99.90
7676;DHT22;3880;51.464;-2.566;2022-08-19T03:18:47;18.60;99.90
7676;DHT22;3880;51.464;-2.566;2022-08-19T03:21:19;18.50;99.90
7676;DHT22;3880;51.464;-2.566;2022-08-19T03:23:47;18.50;99.90
7676;DHT22;3880;51.464;-2.566;2022-08-19T03:26:14;18.40;99.90
7676;DHT22;3880;51.464;-2.566;2022-08-19T03:28:41;18.30;99.90
7676;DHT22;3880;51.464;-2.566;2022-08-19T03:31:12;18.30;99.90
7676;DHT22;3880;51.464;-2.566;2022-08-19T03:33:40;18.40;99.90
7676;DHT22;3880;51.464;-2.566;2022-08-19T03:36:10;18.30;99.90
7676;DHT22;3880;51.464;-2.566;2022-08-19T03:38:40;18.30;99.90
7676;DHT22;3880;51.464;-2.566;2022-08-19T03:41:11;18.30;99.90
7676;DHT22;3880;51.464;-2.566;2022-08-19T03:43:39;18.30;99.90
7676;DHT22;3880;51.464;-2.566;2022-08-19T03:46:09;18.30;99.90
7676;DHT22;3880;51.464;-2.566;2022-08-19T03:48:38;18.20;99.90
7676;DHT22;3880;51.464;-2.566;2022-08-19T03:51:06;18.30;99.90
7676;DHT22;3880;51.464;-2.566;2022-08-19T03:53:35;18.30;99.90
7676;DHT22;3880;51.464;-2.566;2022-08-19T03:56:03;18.20;99.90
7676;DHT22;3880;51.464;-2.566;2022-08-19T03:58:30;18.20;99.90
7676;DHT22;3880;51.464;-2.566;2022-08-19T04:00:58;18.20;99.90
7676;DHT22;3880;51.464;-2.566;2022-08-19T04:03:25;18.20;99.90
7676;DHT22;3880;51.464;-2.566;2022-08-19T04:05:53;18.20;99.90
7676;DHT22;3880;51.464;-2.566;2022-08-19T04:08:20;18.10;99.90
7676;DHT22;3880;51.464;-2.566;2022-08-19T04:10:48;18.10;99.90
7676;DHT22;3880;51.464;-2.566;2022-08-19T04:13:18;18.10;99.90
7676;DHT22;3880;51.464;-2.566;2022-08-19T04:15:45;18.10;99.90
7676;DHT22;3880;51.464;-2.566;2022-08-19T04:18:13;18.10;99.90
7676;DHT22;3880;51.464;-2.566;2022-08-19T04:20:45;18.10;99.90
7676;DHT22;3880;51.464;-2.566;2022-08-19T04:23:13;18.10;99.90
7676;DHT22;3880;51.464;-2.566;2022-08-19T04:25:43;18.00;99.90
7676;DHT22;3880;51.464;-2.566;2022-08-19T04:28:12;18.00;99.90
7676;DHT22;3880;51.464;-2.566;2022-08-19T04:30:42;17.80;99.90
7676;DHT22;3880;51.464;-2.566;2022-08-19T04:33:10;17.80;99.90
7676;DHT22;3880;51.464;-2.566;2022-08-19T04:35:39;17.80;99.90
7676;DHT22;3880;51.464;-2.566;2022-08-19T04:38:07;17.80;99.90
7676;DHT22;3880;51.464;-2.566;2022-08-19T04:40:39;17.60;99.90
7676;DHT22;3880;51.464;-2.566;2022-08-19T04:43:24;17.80;99.90
7676;DHT22;3880;51.464;-2.566;2022-08-19T04:45:53;17.60;99.90
7676;DHT22;3880;51.464;-2.566;2022-08-19T04:48:20;17.50;99.90
7676;DHT22;3880;51.464;-2.566;2022-08-19T04:50:51;17.50;99.90
7676;DHT22;3880;51.464;-2.566;2022-08-19T04:53:23;17.50;99.90
7676;DHT22;3880;51.464;-2.566;2022-08-19T04:55:54;17.40;99.90
7676;DHT22;3880;51.464;-2.566;2022-08-19T04:58:22;17.40;99.90
7676;DHT22;3880;51.464;-2.566;2022-08-19T05:00:48;17.40;99.90
7676;DHT22;3880;51.464;-2.566;2022-08-19T05:03:17;17.30;99.90
7676;DHT22;3880;51.464;-2.566;2022-08-19T05:05:45;17.30;99.90
7676;DHT22;3880;51.464;-2.566;2022-08-19T05:08:16;17.30;99.90
7676;DHT22;3880;51.464;-2.566;2022-08-19T05:10:46;17.20;99.90
7676;DHT22;3880;51.464;-2.566;2022-08-19T05:13:14;17.10;99.90
7676;DHT22;3880;51.464;-2.566;2022-08-19T05:15:42;17.10;99.90
7676;DHT22;3880;51.464;-2.566;2022-08-19T05:18:09;17.00;99.90
7676;DHT22;3880;51.464;-2.566;2022-08-19T05:20:55;17.00;99.90
7676;DHT22;3880;51.464;-2.566;2022-08-19T05:23:39;17.00;99.90
7676;DHT22;3880;51.464;-2.566;2022-08-19T05:26:06;17.00;99.90
7676;DHT22;3880;51.464;-2.566;2022-08-19T05:28:36;17.00;99.90
7676;DHT22;3880;51.464;-2.566;2022-08-19T05:31:03;16.90;99.90
7676;DHT22;3880;51.464;-2.566;2022-08-19T05:33:30;16.90;99.90
7676;DHT22;3880;51.464;-2.566;2022-08-19T05:35:58;16.90;99.90
7676;DHT22;3880;51.464;-2.566;2022-08-19T05:38:25;16.90;99.90
7676;DHT22;3880;51.464;-2.566;2022-08-19T05:40:52;16.90;99.90
7676;DHT22;3880;51.464;-2.566;2022-08-19T05:43:19;16.80;99.90
7676;DHT22;3880;51.464;-2.566;2022-08-19T05:45:46;16.80;99.90
7676;DHT22;3880;51.464;-2.566;2022-08-19T05:48:16;16.70;99.90
7676;DHT22;3880;51.464;-2.566;2022-08-19T05:50:46;16.80;99.90
7676;DHT22;3880;51.464;-2.566;2022-08-19T05:53:17;16.70;99.90
7676;DHT22;3880;51.464;-2.566;2022-08-19T05:55:44;16.60;99.90
7676;DHT22;3880;51.464;-2.566;2022-08-19T05:58:11;16.70;99.90
7676;DHT22;3880;51.464;-2.566;2022-08-19T06:00:38;16.60;99.90
7676;DHT22;3880;51.464;-2.566;2022-08-19T06:03:05;16.60;99.90
7676;DHT22;3880;51.464;-2.566;2022-08-19T06:05:32;16.60;99.90
7676;DHT22;3880;51.464;-2.566;2022-08-19T06:07:59;16.60;99.90
7676;DHT22;3880;51.464;-2.566;2022-08-19T06:10:28;16.60;99.90
7676;DHT22;3880;51.464;-2.566;2022-08-19T06:12:55;16.60;99.90
7676;DHT22;3880;51.464;-2.566;2022-08-19T06:15:22;16.60;99.90
7676;DHT22;3880;51.464;-2.566;2022-08-19T06:17:51;16.60;99.90
7676;DHT22;3880;51.464;-2.566;2022-08-19T06:20:18;16.60;99.90
7676;DHT22;3880;51.464;-2.566;2022-08-19T06:22:47;16.50;99.90
7676;DHT22;3880;51.464;-2.566;2022-08-19T06:25:15;16.60;99.90
7676;DHT22;3880;51.464;-2.566;2022-08-19T06:27:44;16.70;99.90
7676;DHT22;3880;51.464;-2.566;2022-08-19T06:30:12;16.80;99.90
7676;DHT22;3880;51.464;-2.566;2022-08-19T06:32:39;16.80;99.90
7676;DHT22;3880;51.464;-2.566;2022-08-19T06:35:07;16.80;99.90
7676;DHT22;3880;51.464;-2.566;2022-08-19T06:37:34;16.80;99.90
7676;DHT22;3880;51.464;-2.566;2022-08-19T06:40:03;16.80;99.90
7676;DHT22;3880;51.464;-2.566;2022-08-19T06:42:33;16.90;99.90
7676;DHT22;3880;51.464;-2.566;2022-08-19T06:45:01;17.00;99.90
7676;DHT22;3880;51.464;-2.566;2022-08-19T06:47:29;17.00;99.90
7676;DHT22;3880;51.464;-2.566;2022-08-19T06:49:57;17.20;99.90
7676;DHT22;3880;51.464;-2.566;2022-08-19T06:52:28;17.30;99.90
7676;DHT22;3880;51.464;-2.566;2022-08-19T06:54:55;17.30;99.90
7676;DHT22;3880;51.464;-2.566;2022-08-19T06:57:23;17.30;99.90
7676;DHT22;3880;51.464;-2.566;2022-08-19T06:59:50;17.30;99.90
7676;DHT22;3880;51.464;-2.566;2022-08-19T07:02:19;17.40;99.90
7676;DHT22;3880;51.464;-2.566;2022-08-19T07:04:46;17.50;99.90
7676;DHT22;3880;51.464;-2.566;2022-08-19T07:07:14;17.50;99.90
7676;DHT22;3880;51.464;-2.566;2022-08-19T07:09:43;17.60;99.90
7676;DHT22;3880;51.464;-2.566;2022-08-19T07:12:13;17.50;99.90
7676;DHT22;3880;51.464;-2.566;2022-08-19T07:14:41;17.50;99.90
7676;DHT22;3880;51.464;-2.566;2022-08-19T07:17:10;17.50;99.90
7676;DHT22;3880;51.464;-2.566;2022-08-19T07:19:39;17.40;99.90
7676;DHT22;3880;51.464;-2.566;2022-08-19T07:22:09;17.30;99.90
7676;DHT22;3880;51.464;-2.566;2022-08-19T07:24:37;17.40;99.90
7676;DHT22;3880;51.464;-2.566;2022-08-19T07:27:05;17.40;99.90
7676;DHT22;3880;51.464;-2.566;2022-08-19T07:29:35;17.50;99.90
7676;DHT22;3880;51.464;-2.566;2022-08-19T07:32:04;17.50;99.90
7676;DHT22;3880;51.464;-2.566;2022-08-19T07:34:31;17.50;99.90
7676;DHT22;3880;51.464;-2.566;2022-08-19T07:46:57;17.80;99.90
7676;DHT22;3880;51.464;-2.566;2022-08-19T07:49:39;17.90;99.90
7676;DHT22;3880;51.464;-2.566;2022-08-19T07:52:09;18.10;99.90
7676;DHT22;3880;51.464;-2.566;2022-08-19T07:54:37;18.10;99.90
7676;DHT22;3880;51.464;-2.566;2022-08-19T07:57:05;18.20;99.90
7676;DHT22;3880;51.464;-2.566;2022-08-19T07:59:33;18.40;99.90
7676;DHT22;3880;51.464;-2.566;2022-08-19T08:02:02;18.90;99.90
7676;DHT22;3880;51.464;-2.566;2022-08-19T08:04:30;18.80;99.90
7676;DHT22;3880;51.464;-2.566;2022-08-19T08:07:15;18.70;99.90
7676;DHT22;3880;51.464;-2.566;2022-08-19T08:10:00;18.40;99.90
7676;DHT22;3880;51.464;-2.566;2022-08-19T08:12:31;18.50;99.90
7676;DHT22;3880;51.464;-2.566;2022-08-19T08:15:01;18.50;99.90
7676;DHT22;3880;51.464;-2.566;2022-08-19T08:17:32;18.70;99.90
7676;DHT22;3880;51.464;-2.566;2022-08-19T08:19:59;18.80;99.90
7676;DHT22;3880;51.464;-2.566;2022-08-19T08:22:28;19.10;99.90
7676;DHT22;3880;51.464;-2.566;2022-08-19T08:25:17;19.00;99.90
7676;DHT22;3880;51.464;-2.566;2022-08-19T08:27:45;19.40;99.90
7676;DHT22;3880;51.464;-2.566;2022-08-19T08:30:15;19.50;99.90
7676;DHT22;3880;51.464;-2.566;2022-08-19T08:32:44;19.40;99.90
7676;DHT22;3880;51.464;-2.566;2022-08-19T08:35:13;19.50;99.90
7676;DHT22;3880;51.464;-2.566;2022-08-19T08:37:40;19.20;99.90
7676;DHT22;3880;51.464;-2.566;2022-08-19T08:40:16;19.40;99.90
7676;DHT22;3880;51.464;-2.566;2022-08-19T08:42:50;19.40;99.90
7676;DHT22;3880;51.464;-2.566;2022-08-19T08:45:19;19.50;99.90
7676;DHT22;3880;51.464;-2.566;2022-08-19T08:47:50;19.20;99.90
7676;DHT22;3880;51.464;-2.566;2022-08-19T08:50:21;19.30;99.90
7676;DHT22;3880;51.464;-2.566;2022-08-19T08:52:53;19.20;99.90
7676;DHT22;3880;51.464;-2.566;2022-08-19T08:55:25;19.40;99.90
7676;DHT22;3880;51.464;-2.566;2022-08-19T08:57:56;19.40;99.90
7676;DHT22;3880;51.464;-2.566;2022-08-19T09:00:27;19.60;99.90
7676;DHT22;3880;51.464;-2.566;2022-08-19T09:02:57;19.80;99.90
7676;DHT22;3880;51.464;-2.566;2022-08-19T09:05:30;19.80;99.90
7676;DHT22;3880;51.464;-2.566;2022-08-19T09:08:02;20.00;99.90
7676;DHT22;3880;51.464;-2.566;2022-08-19T09:10:38;20.50;99.90
7676;DHT22;3880;51.464;-2.566;2022-08-19T09:13:10;21.90;99.90
7676;DHT22;3880;51.464;-2.566;2022-08-19T09:15:43;23.70;99.90
7676;DHT22;3880;51.464;-2.566;2022-08-19T09:18:12;24.10;99.90
7676;DHT22;3880;51.464;-2.566;2022-08-19T09:20:40;25.20;99.90
7676;DHT22;3880;51.464;-2.566;2022-08-19T09:23:07;26.30;99.90
7676;DHT22;3880;51.464;-2.566;2022-08-19T09:25:35;27.50;99.90
7676;DHT22;3880;51.464;-2.566;2022-08-19T09:28:02;28.90;99.90
7676;DHT22;3880;51.464;-2.566;2022-08-19T09:30:32;28.60;99.90
7676;DHT22;3880;51.464;-2.566;2022-08-19T09:33:00;28.90;99.90
7676;DHT22;3880;51.464;-2.566;2022-08-19T09:35:30;29.30;99.90
7676;DHT22;3880;51.464;-2.566;2022-08-19T09:37:59;29.70;99.90
7676;DHT22;3880;51.464;-2.566;2022-08-19T09:40:28;29.20;99.90
7676;DHT22;3880;51.464;-2.566;2022-08-19T09:42:55;27.90;99.90
7676;DHT22;3880;51.464;-2.566;2022-08-19T09:45:28;27.80;99.90
7676;DHT22;3880;51.464;-2.566;2022-08-19T09:47:56;27.00;99.90
7676;DHT22;3880;51.464;-2.566;2022-08-19T09:50:24;26.70;99.90
7676;DHT22;3880;51.464;-2.566;2022-08-19T09:52:52;27.30;99.90
7676;DHT22;3880;51.464;-2.566;2022-08-19T09:55:21;26.70;99.90
7676;DHT22;3880;51.464;-2.566;2022-08-19T09:57:48;26.50;99.90
7676;DHT22;3880;51.464;-2.566;2022-08-19T10:00:15;25.80;99.90
7676;DHT22;3880;51.464;-2.566;2022-08-19T10:02:42;24.50;99.90
7676;DHT22;3880;51.464;-2.566;2022-08-19T10:05:09;23.70;99.90
7676;DHT22;3880;51.464;-2.566;2022-08-19T10:07:54;23.00;99.90
7676;DHT22;3880;51.464;-2.566;2022-08-19T10:10:22;22.10;99.90
7676;DHT22;3880;51.464;-2.566;2022-08-19T10:12:49;22.10;99.90
7676;DHT22;3880;51.464;-2.566;2022-08-19T10:15:16;22.00;99.90
7676;DHT22;3880;51.464;-2.566;2022-08-19T10:17:46;21.30;99.90
7676;DHT22;3880;51.464;-2.566;2022-08-19T10:20:13;20.80;99.90
7676;DHT22;3880;51.464;-2.566;2022-08-19T10:22:40;20.70;99.90
7676;DHT22;3880;51.464;-2.566;2022-08-19T10:25:10;20.60;99.90
7676;DHT22;3880;51.464;-2.566;2022-08-19T10:27:42;20.90;99.90
7676;DHT22;3880;51.464;-2.566;2022-08-19T10:30:10;20.70;99.90
7676;DHT22;3880;51.464;-2.566;2022-08-19T10:32:37;20.80;99.90
7676;DHT22;3880;51.464;-2.566;2022-08-19T10:35:05;20.90;99.90
7676;DHT22;3880;51.464;-2.566;2022-08-19T10:37:34;21.50;99.90
7676;DHT22;3880;51.464;-2.566;2022-08-19T10:40:03;21.30;99.90
7676;DHT22;3880;51.464;-2.566;2022-08-19T10:42:35;21.60;99.90
7676;DHT22;3880;51.464;-2.566;2022-08-19T10:45:03;21.80;99.90
7676;DHT22;3880;51.464;-2.566;2022-08-19T10:47:31;22.30;99.90
7676;DHT22;3880;51.464;-2.566;2022-08-19T10:49:58;22.80;99.90
7676;DHT22;3880;51.464;-2.566;2022-08-19T10:52:44;24.00;99.90
7676;DHT22;3880;51.464;-2.566;2022-08-19T10:55:12;25.50;99.90
7676;DHT22;3880;51.464;-2.566;2022-08-19T10:57:57;25.30;99.90
7676;DHT22;3880;51.464;-2.566;2022-08-19T11:00:25;26.10;99.90
7676;DHT22;3880;51.464;-2.566;2022-08-19T11:02:52;26.70;99.90
7676;DHT22;3880;51.464;-2.566;2022-08-19T11:05:19;27.90;99.90
7676;DHT22;3880;51.464;-2.566;2022-08-19T11:07:47;28.70;99.90
7676;DHT22;3880;51.464;-2.566;2022-08-19T11:10:16;27.70;99.90
7676;DHT22;3880;51.464;-2.566;2022-08-19T11:12:44;26.50;99.90
7676;DHT22;3880;51.464;-2.566;2022-08-19T11:15:14;26.00;99.90
7676;DHT22;3880;51.464;-2.566;2022-08-19T11:17:42;26.70;99.90
7676;DHT22;3880;51.464;-2.566;2022-08-19T11:20:11;25.70;99.90
7676;DHT22;3880;51.464;-2.566;2022-08-19T11:22:38;25.30;99.90
7676;DHT22;3880;51.464;-2.566;2022-08-19T11:25:06;24.90;99.90
7676;DHT22;3880;51.464;-2.566;2022-08-19T11:27:33;25.00;99.90
7676;DHT22;3880;51.464;-2.566;2022-08-19T11:30:04;26.60;99.90
7676;DHT22;3880;51.464;-2.566;2022-08-19T11:32:34;26.40;99.90
7676;DHT22;3880;51.464;-2.566;2022-08-19T11:35:01;27.00;99.90
7676;DHT22;3880;51.464;-2.566;2022-08-19T11:37:29;27.00;99.90
7676;DHT22;3880;51.464;-2.566;2022-08-19T11:39:56;27.10;99.90
7676;DHT22;3880;51.464;-2.566;2022-08-19T11:42:23;25.90;99.90
7676;DHT22;3880;51.464;-2.566;2022-08-19T11:45:08;24.50;99.90
7676;DHT22;3880;51.464;-2.566;2022-08-19T11:47:37;23.30;99.90
7676;DHT22;3880;51.464;-2.566;2022-08-19T11:50:05;23.00;99.90
7676;DHT22;3880;51.464;-2.566;2022-08-19T11:52:32;23.30;99.90
7676;DHT22;3880;51.464;-2.566;2022-08-19T11:54:59;23.90;99.90
7676;DHT22;3880;51.464;-2.566;2022-08-19T11:57:26;24.70;99.90
7676;DHT22;3880;51.464;-2.566;2022-08-19T11:59:53;26.00;99.90
7676;DHT22;3880;51.464;-2.566;2022-08-19T12:02:20;26.40;99.90
7676;DHT22;3880;51.464;-2.566;2022-08-19T12:04:50;25.70;99.90
7676;DHT22;3880;51.464;-2.566;2022-08-19T12:07:17;25.50;99.90
7676;DHT22;3880;51.464;-2.566;2022-08-19T12:09:44;26.50;99.90
7676;DHT22;3880;51.464;-2.566;2022-08-19T12:12:11;26.80;99.90
7676;DHT22;3880;51.464;-2.566;2022-08-19T12:14:38;28.00;99.90
7676;DHT22;3880;51.464;-2.566;2022-08-19T12:17:05;29.30;99.90
7676;DHT22;3880;51.464;-2.566;2022-08-19T12:19:35;29.50;99.90
7676;DHT22;3880;51.464;-2.566;2022-08-19T12:22:04;30.50;99.90
7676;DHT22;3880;51.464;-2.566;2022-08-19T12:24:33;30.20;99.90
7676;DHT22;3880;51.464;-2.566;2022-08-19T12:27:00;29.70;99.90
7676;DHT22;3880;51.464;-2.566;2022-08-19T12:29:28;29.20;99.90
7676;DHT22;3880;51.464;-2.566;2022-08-19T12:31:56;27.50;99.90
7676;DHT22;3880;51.464;-2.566;2022-08-19T12:34:27;27.20;99.90
7676;DHT22;3880;51.464;-2.566;2022-08-19T12:36:55;27.40;99.90
7676;DHT22;3880;51.464;-2.566;2022-08-19T12:39:24;26.30;99.90
7676;DHT22;3880;51.464;-2.566;2022-08-19T12:41:51;25.70;99.90
7676;DHT22;3880;51.464;-2.566;2022-08-19T12:44:18;25.30;99.90
7676;DHT22;3880;51.464;-2.566;2022-08-19T12:46:46;24.80;99.90
7676;DHT22;3880;51.464;-2.566;2022-08-19T12:49:14;24.80;99.90
7676;DHT22;3880;51.464;-2.566;2022-08-19T12:51:42;26.00;99.90
7676;DHT22;3880;51.464;-2.566;2022-08-19T12:54:09;27.30;99.90
7676;DHT22;3880;51.464;-2.566;2022-08-19T12:56:37;27.70;99.90
7676;DHT22;3880;51.464;-2.566;2022-08-19T12:59:04;27.50;99.40
7676;DHT22;3880;51.464;-2.566;2022-08-19T13:01:33;27.00;99.90
7676;DHT22;3880;51.464;-2.566;2022-08-19T13:04:00;27.80;99.90
7676;DHT22;3880;51.464;-2.566;2022-08-19T13:06:27;28.30;99.20
7676;DHT22;3880;51.464;-2.566;2022-08-19T13:08:54;28.00;99.70
7676;DHT22;3880;51.464;-2.566;2022-08-19T13:11:22;27.70;99.80
7676;DHT22;3880;51.464;-2.566;2022-08-19T13:13:52;27.00;99.90
7676;DHT22;3880;51.464;-2.566;2022-08-19T13:16:21;26.90;99.90
7676;DHT22;3880;51.464;-2.566;2022-08-19T13:18:49;27.50;99.90
7676;DHT22;3880;51.464;-2.566;2022-08-19T13:21:17;28.20;99.90
7676;DHT22;3880;51.464;-2.566;2022-08-19T13:23:46;28.60;99.90
7676;DHT22;3880;51.464;-2.566;2022-08-19T13:26:13;28.70;99.90
7676;DHT22;3880;51.464;-2.566;2022-08-19T13:28:41;29.20;99.90
7676;DHT22;3880;51.464;-2.566;2022-08-19T13:31:29;29.60;98.20
7676;DHT22;3880;51.464;-2.566;2022-08-19T13:34:15;29.20;97.80
7676;DHT22;3880;51.464;-2.566;2022-08-19T13:36:43;29.40;98.00
7676;DHT22;3880;51.464;-2.566;2022-08-19T13:39:11;30.20;97.40
7676;DHT22;3880;51.464;-2.566;2022-08-19T13:41:44;29.50;96.30
7676;DHT22;3880;51.464;-2.566;2022-08-19T13:44:14;29.90;96.60
7676;DHT22;3880;51.464;-2.566;2022-08-19T13:46:42;30.20;96.60
7676;DHT22;3880;51.464;-2.566;2022-08-19T13:49:11;30.00;96.40
7676;DHT22;3880;51.464;-2.566;2022-08-19T13:51:38;29.40;96.90
7676;DHT22;3880;51.464;-2.566;2022-08-19T13:54:06;29.70;97.00
7676;DHT22;3880;51.464;-2.566;2022-08-19T13:56:34;28.20;96.20
7676;DHT22;3880;51.464;-2.566;2022-08-19T13:59:02;28.20;96.60
7676;DHT22;3880;51.464;-2.566;2022-08-19T14:01:29;28.40;96.90
7676;DHT22;3880;51.464;-2.566;2022-08-19T14:03:59;28.70;96.60
7676;DHT22;3880;51.464;-2.566;2022-08-19T14:06:28;29.30;96.70
7676;DHT22;3880;51.464;-2.566;2022-08-19T14:08:56;28.90;96.20
7676;DHT22;3880;51.464;-2.566;2022-08-19T14:11:23;27.90;96.70
7676;DHT22;3880;51.464;-2.566;2022-08-19T14:13:50;27.70;97.00
7676;DHT22;3880;51.464;-2.566;2022-08-19T14:16:17;27.80;97.80
7676;DHT22;3880;51.464;-2.566;2022-08-19T14:18:44;28.40;96.80
7676;DHT22;3880;51.464;-2.566;2022-08-19T14:21:17;28.10;96.80
7676;DHT22;3880;51.464;-2.566;2022-08-19T14:23:46;26.70;97.30
7676;DHT22;3880;51.464;-2.566;2022-08-19T14:26:15;27.00;97.70
7676;DHT22;3880;51.464;-2.566;2022-08-19T14:28:43;27.90;97.20
7676;DHT22;3880;51.464;-2.566;2022-08-19T14:31:11;27.90;96.80
7676;DHT22;3880;51.464;-2.566;2022-08-19T14:33:38;26.60;98.00
7676;DHT22;3880;51.464;-2.566;2022-08-19T14:36:06;25.30;99.00
7676;DHT22;3880;51.464;-2.566;2022-08-19T14:38:34;25.30;99.80
7676;DHT22;3880;51.464;-2.566;2022-08-19T14:41:10;25.40;99.90
7676;DHT22;3880;51.464;-2.566;2022-08-19T14:43:37;25.60;99.50
7676;DHT22;3880;51.464;-2.566;2022-08-19T14:46:05;25.70;99.50
7676;DHT22;3880;51.464;-2.566;2022-08-19T14:48:33;25.30;99.50
7676;DHT22;3880;51.464;-2.566;2022-08-19T14:51:01;25.20;99.90
7676;DHT22;3880;51.464;-2.566;2022-08-19T14:53:29;26.30;99.40
7676;DHT22;3880;51.464;-2.566;2022-08-19T14:55:57;27.10;98.70
7676;DHT22;3880;51.464;-2.566;2022-08-19T14:58:24;27.90;97.90
7676;DHT22;3880;51.464;-2.566;2022-08-19T15:00:51;27.70;97.60
7676;DHT22;3880;51.464;-2.566;2022-08-19T15:03:18;27.90;97.50
7676;DHT22;3880;51.464;-2.566;2022-08-19T15:05:45;28.10;97.50
7676;DHT22;3880;51.464;-2.566;2022-08-19T15:08:12;28.10;97.30
7676;DHT22;3880;51.464;-2.566;2022-08-19T15:10:39;27.50;97.70
7676;DHT22;3880;51.464;-2.566;2022-08-19T15:13:07;27.70;97.20
7676;DHT22;3880;51.464;-2.566;2022-08-19T15:15:35;27.10;97.30
7676;DHT22;3880;51.464;-2.566;2022-08-19T15:18:03;26.30;98.00
7676;DHT22;3880;51.464;-2.566;2022-08-19T15:20:32;25.00;99.30
7676;DHT22;3880;51.464;-2.566;2022-08-19T15:22:58;24.50;99.90
7676;DHT22;3880;51.464;-2.566;2022-08-19T15:25:26;25.00;99.90
7676;DHT22;3880;51.464;-2.566;2022-08-19T15:27:54;24.50;99.90
7676;DHT22;3880;51.464;-2.566;2022-08-19T15:30:24;24.60;99.90
7676;DHT22;3880;51.464;-2.566;2022-08-19T15:32:53;24.60;99.90
7676;DHT22;3880;51.464;-2.566;2022-08-19T15:35:21;24.90;99.90
7676;DHT22;3880;51.464;-2.566;2022-08-19T15:37:49;25.50;99.90
7676;DHT22;3880;51.464;-2.566;2022-08-19T15:40:16;26.30;99.90
7676;DHT22;3880;51.464;-2.566;2022-08-19T15:42:44;26.50;99.90
7676;DHT22;3880;51.464;-2.566;2022-08-19T15:45:13;26.30;99.90
7676;DHT22;3880;51.464;-2.566;2022-08-19T15:47:42;26.20;99.90
7676;DHT22;3880;51.464;-2.566;2022-08-19T15:50:12;26.60;99.90
7676;DHT22;3880;51.464;-2.566;2022-08-19T15:52:45;26.10;99.90
7676;DHT22;3880;51.464;-2.566;2022-08-19T15:55:12;25.60;99.90
7676;DHT22;3880;51.464;-2.566;2022-08-19T15:57:39;24.70;99.90
7676;DHT22;3880;51.464;-2.566;2022-08-19T16:00:24;24.10;99.90
7676;DHT22;3880;51.464;-2.566;2022-08-19T16:03:13;23.90;99.90
7676;DHT22;3880;51.464;-2.566;2022-08-19T16:05:58;23.80;99.90